Time;durP1;ratioP1;P1;durP2;ratioP2;P2;SDS_P1;SDS_P2;PMS_P1;PMS_P2;Temp;Humidity;BMP_temperature;BMP_pressure;BME280_temperature;BME280_humidity;BME280_pressure;Samples;Min_cycle;Max_cycle;Signal;HPM_P1;HPM_P2
2021/05/16 00:01:08;;;;;;;8.30;5.53;;;17.50;66.10;;;;;;5023122;28;20028;-63
2021/05/16 00:03:33;;;;;;;9.52;5.85;;;17.50;66.10;;;;;;5022210;28;20044;-63
2021/05/16 00:05:59;;;;;;;9.80;6.00;;;17.50;66.30;;;;;;5021738;28;20362;-63
2021/05/16 00:08:25;;;;;;;14.98;7.07;;;17.50;66.30;;;;;;5022394;28;20037;-63
2021/05/16 00:10:50;;;;;;;7.25;5.18;;;17.50;66.30;;;;;;5022421;28;20017;-63
2021/05/16 00:13:16;;;;;;;9.85;6.43;;;17.50;66.40;;;;;;5023396;28;20040;-63
2021/05/16 00:15:42;;;;;;;10.68;6.35;;;17.40;66.40;;;;;;5023552;28;20030;-63
2021/05/16 00:18:07;;;;;;;8.50;6.50;;;17.40;66.40;;;;;;5005283;28;20025;-63
2021/05/16 00:20:34;;;;;;;9.45;6.35;;;17.40;66.60;;;;;;5023961;28;20030;-63
2021/05/16 00:23:01;;;;;;;8.43;6.25;;;17.30;66.60;;;;;;5021304;28;20030;-63
2021/05/16 00:25:27;;;;;;;10.35;6.82;;;17.30;66.70;;;;;;5022963;28;20026;-63
2021/05/16 00:27:54;;;;;;;9.80;7.00;;;17.30;66.90;;;;;;5022108;28;20086;-63
2021/05/16 00:30:25;;;;;;;10.43;6.97;;;17.20;67.00;;;;;;5022811;28;20021;-63
2021/05/16 00:32:51;;;;;;;9.57;6.40;;;17.20;67.40;;;;;;5023707;28;20099;-63
2021/05/16 00:35:18;;;;;;;9.18;7.00;;;17.20;67.80;;;;;;5023790;28;20430;-63
2021/05/16 00:37:44;;;;;;;9.60;7.28;;;17.20;67.80;;;;;;5024333;28;20022;-63
2021/05/16 00:40:11;;;;;;;8.68;7.30;;;17.20;67.70;;;;;;5022498;28;20024;-63
2021/05/16 00:42:36;;;;;;;10.07;7.45;;;17.20;67.80;;;;;;5023760;28;20354;-63
2021/05/16 00:45:08;;;;;;;9.07;7.15;;;17.10;67.90;;;;;;5021000;28;20015;-63
2021/05/16 00:47:35;;;;;;;11.32;7.35;;;17.10;68.10;;;;;;5021196;28;20028;-63
2021/05/16 00:50:01;;;;;;;9.50;7.10;;;17.00;68.10;;;;;;5021806;28;20024;-63
2021/05/16 00:52:27;;;;;;;10.98;7.53;;;17.00;68.30;;;;;;5026010;28;20049;-63
2021/05/16 00:54:55;;;;;;;11.82;7.20;;;16.90;68.10;;;;;;5027336;28;20046;-63
2021/05/16 00:57:22;;;;;;;13.00;7.22;;;16.90;68.20;;;;;;5024608;28;20022;-63
2021/05/16 00:59:47;;;;;;;12.32;6.72;;;16.90;68.30;;;;;;5026371;28;20382;-63
2021/05/16 01:02:13;;;;;;;11.13;6.80;;;16.80;68.40;;;;;;5025740;28;20026;-63
2021/05/16 01:04:41;;;;;;;9.48;6.32;;;16.70;68.50;;;;;;5025409;28;20160;-63
2021/05/16 01:07:07;;;;;;;8.15;6.65;;;16.70;68.60;;;;;;5026274;28;20528;-63
2021/05/16 01:09:33;;;;;;;8.05;5.95;;;16.70;68.70;;;;;;5025553;28;20028;-63
2021/05/16 01:12:01;;;;;;;9.35;6.80;;;16.70;68.80;;;;;;5027335;28;20365;-63
2021/05/16 01:14:36;;;;;;;8.23;6.10;;;16.70;69.00;;;;;;5026244;28;20018;-63
2021/05/16 01:17:02;;;;;;;8.00;5.80;;;16.60;69.10;;;;;;5023777;28;20032;-63
2021/05/16 01:19:33;;;;;;;8.65;6.20;;;16.60;69.40;;;;;;5025950;28;20014;-63
2021/05/16 01:22:00;;;;;;;8.45;6.07;;;16.60;69.60;;;;;;5026171;28;20026;-63
2021/05/16 01:24:28;;;;;;;7.90;5.82;;;16.60;69.60;;;;;;5023971;28;20116;-63
2021/05/16 01:26:54;;;;;;;9.57;6.00;;;16.50;69.60;;;;;;5026534;28;20032;-63
2021/05/16 01:29:22;;;;;;;9.10;6.40;;;16.60;69.60;;;;;;5024735;28;20033;-63
2021/05/16 01:31:48;;;;;;;9.00;6.85;;;16.50;69.60;;;;;;5025690;28;20087;-63
2021/05/16 01:34:13;;;;;;;12.27;6.03;;;16.50;69.80;;;;;;5025896;28;20024;-63
2021/05/16 01:36:39;;;;;;;8.63;6.18;;;16.50;69.70;;;;;;5026616;28;20374;-63
2021/05/16 01:39:09;;;;;;;9.00;5.93;;;16.50;69.60;;;;;;5022611;28;20014;-63
2021/05/16 01:41:34;;;;;;;8.45;6.05;;;16.50;69.50;;;;;;5024806;28;20380;-63
2021/05/16 01:44:01;;;;;;;9.32;5.97;;;16.50;69.50;;;;;;5024411;28;20032;-63
2021/05/16 01:46:26;;;;;;;10.07;6.78;;;16.50;69.50;;;;;;5025897;28;20025;-63
2021/05/16 01:48:52;;;;;;;10.00;6.20;;;16.50;69.40;;;;;;5026407;28;20029;-63
2021/05/16 01:51:21;;;;;;;10.27;6.53;;;16.50;69.60;;;;;;5024285;28;20033;-63
2021/05/16 01:53:48;;;;;;;7.47;5.80;;;16.50;69.50;;;;;;5025246;28;20116;-63
2021/05/16 01:56:29;;;;;;;9.82;6.43;;;16.50;69.50;;;;;;5025799;28;20490;-63
2021/05/16 01:58:57;;;;;;;8.10;5.95;;;16.50;69.40;;;;;;5023444;28;20029;-63
2021/05/16 02:01:23;;;;;;;9.95;6.32;;;16.40;69.60;;;;;;5024421;28;20050;-63
2021/05/16 02:03:49;;;;;;;9.43;6.30;;;16.30;69.80;;;;;;5026221;28;20363;-63
2021/05/16 02:06:15;;;;;;;8.82;6.05;;;16.30;69.90;;;;;;5024277;28;20029;-63
2021/05/16 02:08:43;;;;;;;7.45;6.07;;;16.30;69.90;;;;;;5026329;28;20468;-63
2021/05/16 02:11:09;;;;;;;10.23;7.07;;;16.20;70.00;;;;;;5025125;28;20377;-63
2021/05/16 02:13:39;;;;;;;8.50;6.20;;;16.20;70.20;;;;;;5024123;28;20353;-63
2021/05/16 02:16:06;;;;;;;8.32;6.25;;;16.20;70.30;;;;;;5027048;28;20024;-63
2021/05/16 02:18:31;;;;;;;10.20;7.32;;;16.20;70.50;;;;;;5025481;28;20026;-63
2021/05/16 02:20:57;;;;;;;11.15;6.78;;;16.20;70.40;;;;;;5023734;28;20022;-63
2021/05/16 02:23:23;;;;;;;7.72;5.85;;;16.20;70.30;;;;;;5021906;28;20025;-63
2021/05/16 02:25:51;;;;;;;7.97;5.88;;;16.10;70.30;;;;;;5025987;28;20029;-63
2021/05/16 02:28:17;;;;;;;10.18;6.00;;;16.10;70.60;;;;;;5023639;28;20026;-63
2021/05/16 02:30:44;;;;;;;7.78;5.45;;;16.10;70.80;;;;;;5024328;28;20026;-63
2021/05/16 02:33:10;;;;;;;7.93;6.32;;;16.10;71.30;;;;;;5024380;28;20020;-63
2021/05/16 02:35:35;;;;;;;10.25;5.80;;;16.10;71.00;;;;;;5027434;28;20539;-63
2021/05/16 02:38:01;;;;;;;8.98;5.80;;;16.20;71.30;;;;;;5025266;28;20112;-63
2021/05/16 02:40:27;;;;;;;7.10;5.90;;;16.20;71.50;;;;;;5024192;28;20025;-63
2021/05/16 02:42:53;;;;;;;8.45;6.22;;;16.20;71.30;;;;;;5023747;28;20017;-63
2021/05/16 02:45:19;;;;;;;8.05;6.05;;;16.30;71.50;;;;;;5025076;28;20116;-63
2021/05/16 02:47:45;;;;;;;8.63;5.95;;;16.30;71.30;;;;;;5023702;28;20366;-63
2021/05/16 02:50:12;;;;;;;10.23;6.75;;;16.40;71.50;;;;;;5023886;28;20017;-63
2021/05/16 02:52:38;;;;;;;9.32;6.05;;;16.40;71.70;;;;;;5025000;28;20029;-63
2021/05/16 02:55:05;;;;;;;6.97;6.10;;;16.50;72.00;;;;;;5023414;28;20049;-63
2021/05/16 02:57:31;;;;;;;8.93;7.07;;;16.50;72.00;;;;;;5023619;28;20017;-63
2021/05/16 02:59:56;;;;;;;9.32;6.90;;;16.50;72.00;;;;;;5025248;28;20032;-63
2021/05/16 03:02:22;;;;;;;9.82;7.18;;;16.60;72.20;;;;;;5023444;28;20029;-63
2021/05/16 03:04:48;;;;;;;8.90;6.97;;;16.60;72.60;;;;;;5019366;28;20467;-63
2021/05/16 03:07:14;;;;;;;10.25;6.90;;;16.70;72.80;;;;;;5024105;28;20037;-63
2021/05/16 03:09:39;;;;;;;11.88;7.50;;;16.80;72.90;;;;;;5005187;28;20025;-63
2021/05/16 03:12:06;;;;;;;9.73;6.75;;;16.90;72.90;;;;;;5024497;28;20053;-63
2021/05/16 03:14:33;;;;;;;11.55;7.65;;;17.10;72.90;;;;;;5024116;28;20080;-63
2021/05/16 03:16:58;;;;;;;9.68;7.55;;;17.20;72.60;;;;;;5021742;28;20026;-63
2021/05/16 03:19:25;;;;;;;10.32;7.57;;;17.40;72.30;;;;;;5024521;28;20072;-63
2021/05/16 03:21:51;;;;;;;11.18;7.82;;;17.50;73.10;;;;;;5023642;28;20026;-63
2021/05/16 03:24:17;;;;;;;9.85;7.05;;;17.70;71.90;;;;;;5022596;28;20033;-63
2021/05/16 03:26:43;;;;;;;9.25;6.82;;;17.90;72.20;;;;;;5023052;28;20354;-63
2021/05/16 03:29:09;;;;;;;9.10;6.85;;;18.10;71.90;;;;;;5022849;28;20072;-63
2021/05/16 03:31:35;;;;;;;12.02;6.72;;;18.30;71.70;;;;;;5022622;28;20078;-63
2021/05/16 03:34:02;;;;;;;8.77;6.13;;;18.50;71.30;;;;;;5024390;28;20029;-63
2021/05/16 03:36:27;;;;;;;7.13;5.55;;;18.80;72.20;;;;;;5020509;28;20101;-64
2021/05/16 03:38:53;;;;;;;8.32;5.72;;;19.10;71.10;;;;;;5021733;28;20148;-63
2021/05/16 03:41:19;;;;;;;9.85;6.35;;;19.50;70.80;;;;;;5021598;28;20072;-63
2021/05/16 03:43:45;;;;;;;7.97;5.63;;;19.90;70.00;;;;;;5023803;28;20505;-64
2021/05/16 03:46:11;;;;;;;7.95;5.20;;;20.40;69.10;;;;;;5023640;28;20087;-63
2021/05/16 03:48:38;;;;;;;8.35;5.60;;;21.00;68.40;;;;;;5022553;28;20060;-64
2021/05/16 03:51:05;;;;;;;7.82;5.32;;;21.70;66.60;;;;;;5022336;28;20112;-64
2021/05/16 03:53:31;;;;;;;6.13;5.03;;;22.50;64.40;;;;;;5022961;28;20029;-64
2021/05/16 03:55:56;;;;;;;6.47;4.70;;;23.30;61.90;;;;;;5023575;28;20045;-64
2021/05/16 03:58:23;;;;;;;6.78;4.18;;;24.20;59.40;;;;;;5024141;28;20346;-64
2021/05/16 04:00:49;;;;;;;6.13;4.38;;;25.20;57.60;;;;;;5023105;28;20032;-64
2021/05/16 04:03:14;;;;;;;7.53;5.53;;;26.00;56.40;;;;;;5022363;28;20040;-64
2021/05/16 04:05:40;;;;;;;6.93;4.85;;;26.70;55.30;;;;;;5024445;28;20030;-64
2021/05/16 04:08:06;;;;;;;6.13;5.00;;;27.40;54.00;;;;;;5022698;28;20101;-64
2021/05/16 04:10:33;;;;;;;6.57;4.85;;;28.10;53.10;;;;;;5022541;28;20041;-64
2021/05/16 04:12:59;;;;;;;5.85;4.85;;;28.70;52.00;;;;;;5023787;28;20454;-64
2021/05/16 04:15:24;;;;;;;6.40;4.57;;;29.30;51.10;;;;;;5022356;28;20025;-64
2021/05/16 04:17:50;;;;;;;5.78;4.47;;;29.90;50.30;;;;;;5023193;28;20029;-64
2021/05/16 04:20:16;;;;;;;5.15;4.63;;;30.50;49.70;;;;;;5024314;28;20358;-64
2021/05/16 04:22:42;;;;;;;5.82;4.47;;;31.10;49.10;;;;;;5018337;28;20037;-64
2021/05/16 04:25:08;;;;;;;4.60;4.20;;;31.60;48.30;;;;;;5022537;28;20050;-64
2021/05/16 04:27:34;;;;;;;5.28;4.38;;;32.10;47.70;;;;;;5022676;28;20079;-64
2021/05/16 04:29:59;;;;;;;5.53;4.07;;;32.60;47.00;;;;;;5005520;28;20022;-64
2021/05/16 04:32:25;;;;;;;4.43;4.03;;;33.00;46.40;;;;;;5020778;28;20026;-64
2021/05/16 04:34:51;;;;;;;4.93;4.22;;;33.40;45.80;;;;;;5023715;28;20147;-64
2021/05/16 04:37:16;;;;;;;5.85;4.38;;;33.70;45.10;;;;;;5021387;28;20021;-64
2021/05/16 04:39:43;;;;;;;5.28;4.22;;;34.00;44.60;;;;;;5025468;28;20037;-64
2021/05/16 04:42:08;;;;;;;4.88;4.32;;;34.30;44.20;;;;;;5020977;28;20489;-64
2021/05/16 04:44:34;;;;;;;6.97;4.07;;;34.50;43.70;;;;;;5027446;28;20049;-65
2021/05/16 04:47:00;;;;;;;4.70;3.70;;;34.70;43.60;;;;;;5026141;28;20025;-64
2021/05/16 04:49:26;;;;;;;4.50;3.65;;;34.90;43.30;;;;;;5025763;28;20032;-64
2021/05/16 04:51:51;;;;;;;4.18;3.78;;;35.10;43.70;;;;;;5026204;28;20029;-64
2021/05/16 04:54:17;;;;;;;4.65;4.10;;;35.20;42.80;;;;;;5027384;28;20025;-64
2021/05/16 04:56:43;;;;;;;4.03;3.63;;;35.30;42.30;;;;;;5027165;28;20042;-64
2021/05/16 04:59:09;;;;;;;6.30;4.00;;;35.50;42.30;;;;;;5026182;28;20469;-64
2021/05/16 05:01:36;;;;;;;4.72;3.88;;;35.60;42.20;;;;;;5025500;28;20030;-64
2021/05/16 05:04:03;;;;;;;6.95;3.97;;;35.70;41.90;;;;;;5024057;28;20048;-65
2021/05/16 05:06:29;;;;;;;4.13;3.70;;;35.80;41.70;;;;;;5023465;28;20108;-65
2021/05/16 05:08:56;;;;;;;5.80;4.15;;;35.80;41.50;;;;;;5026725;28;20417;-65
2021/05/16 05:11:22;;;;;;;4.60;3.97;;;35.80;41.30;;;;;;5024886;28;20493;-64
2021/05/16 05:13:48;;;;;;;3.90;3.50;;;35.70;41.20;;;;;;5025293;28;20033;-64
2021/05/16 05:16:13;;;;;;;4.55;4.05;;;35.50;41.10;;;;;;5028323;28;20033;-64
2021/05/16 05:18:39;;;;;;;4.50;4.10;;;35.20;41.00;;;;;;5023674;28;20401;-64
2021/05/16 05:21:07;;;;;;;4.68;4.18;;;34.70;40.90;;;;;;5025778;28;20022;-64
2021/05/16 05:23:33;;;;;;;5.40;4.10;;;34.20;41.30;;;;;;5023658;28;20036;-64
2021/05/16 05:25:59;;;;;;;5.93;4.35;;;33.50;41.80;;;;;;5027020;28;20392;-64
2021/05/16 05:28:25;;;;;;;4.93;4.22;;;32.60;42.80;;;;;;5025162;28;20028;-64
2021/05/16 05:30:51;;;;;;;4.88;4.15;;;31.60;43.50;;;;;;5025892;28;20028;-64
2021/05/16 05:33:19;;;;;;;4.72;4.05;;;30.70;44.60;;;;;;5008021;28;20022;-64
2021/05/16 05:35:45;;;;;;;4.65;4.25;;;29.80;45.70;;;;;;5020992;28;20030;-64
2021/05/16 05:38:11;;;;;;;5.13;3.90;;;29.10;47.00;;;;;;5026618;28;20017;-64
2021/05/16 05:40:37;;;;;;;5.28;3.97;;;28.40;47.60;;;;;;5023863;28;20021;-64
2021/05/16 05:43:02;;;;;;;4.35;3.90;;;27.80;48.90;;;;;;5025887;28;20025;-64
2021/05/16 05:45:28;;;;;;;5.70;4.45;;;27.30;49.60;;;;;;5025168;28;20361;-64
2021/05/16 05:47:54;;;;;;;5.15;4.00;;;26.80;50.20;;;;;;5025010;28;20503;-64
2021/05/16 05:50:19;;;;;;;4.95;4.25;;;26.50;50.80;;;;;;5026468;28;20022;-64
2021/05/16 05:52:45;;;;;;;4.65;3.97;;;26.20;51.30;;;;;;5024611;28;20022;-64
2021/05/16 05:55:11;;;;;;;4.68;4.18;;;25.90;51.90;;;;;;5025940;28;20046;-64
2021/05/16 05:57:37;;;;;;;5.50;4.57;;;25.70;52.50;;;;;;5024494;28;20021;-64
2021/05/16 11:53:02;;;;;;;1.23;1.23;;;24.20;48.50;;;;;;5094408;28;20023;-60
2021/05/16 11:55:28;;;;;;;1.25;1.15;;;24.20;47.70;;;;;;5093242;28;20016;-60
2021/05/16 11:57:53;;;;;;;1.00;0.90;;;24.30;47.60;;;;;;5093282;28;20024;-60
2021/05/16 12:00:20;;;;;;;1.55;1.30;;;24.30;46.90;;;;;;5090416;28;20166;-60
2021/05/16 12:02:46;;;;;;;1.38;1.27;;;24.20;46.20;;;;;;5091613;28;20088;-60
2021/05/16 12:05:25;;;;;;;0.90;0.90;;;24.20;46.00;;;;;;5090331;28;20111;-60
2021/05/16 12:07:50;;;;;;;2.60;1.45;;;24.20;46.30;;;;;;5092940;28;20055;-60
2021/05/16 12:10:20;;;;;;;1.83;1.20;;;24.20;46.20;;;;;;5092501;28;20498;-60
2021/05/16 12:12:45;;;;;;;2.67;1.10;;;24.20;46.10;;;;;;5092616;28;20028;-60
2021/05/16 12:15:12;;;;;;;2.97;0.98;;;24.20;46.20;;;;;;5092269;28;20093;-60
2021/05/16 12:17:38;;;;;;;1.20;1.10;;;24.20;46.10;;;;;;5092526;28;20031;-60
2021/05/16 12:20:06;;;;;;;3.92;1.50;;;24.20;46.30;;;;;;5090891;28;20051;-62
2021/05/16 12:22:37;;;;;;;1.08;0.90;;;24.20;46.00;;;;;;5091988;28;20020;-60
2021/05/16 12:25:05;;;;;;;0.98;0.98;;;24.10;45.80;;;;;;5090589;28;20107;-60
2021/05/16 12:27:32;;;;;;;1.20;1.10;;;24.20;45.90;;;;;;5090348;28;20376;-60
2021/05/16 12:29:57;;;;;;;1.30;1.20;;;24.10;45.20;;;;;;5072965;28;20027;-60
2021/05/16 12:32:25;;;;;;;2.25;1.30;;;24.10;44.80;;;;;;5092318;28;20468;-60
2021/05/16 12:34:52;;;;;;;1.70;1.60;;;24.00;44.70;;;;;;5088896;28;20024;-60
2021/05/16 12:37:23;;;;;;;2.80;1.65;;;24.00;44.50;;;;;;5092009;28;20024;-60
2021/05/16 12:39:52;;;;;;;2.45;1.33;;;24.00;44.80;;;;;;5090062;28;20600;-60
2021/05/16 12:42:39;;;;;;;1.60;1.50;;;24.00;44.90;;;;;;5090144;28;20491;-60
2021/05/16 12:45:26;;;;;;;1.55;1.45;;;24.00;44.80;;;;;;5091074;28;20043;-60
2021/05/16 12:48:04;;;;;;;1.65;0.95;;;24.00;44.90;;;;;;5090347;28;20031;-60
2021/05/16 12:50:42;;;;;;;1.20;1.10;;;23.90;44.60;;;;;;5089393;28;20509;-60
2021/05/16 12:53:26;;;;;;;2.97;1.40;;;24.00;44.60;;;;;;5088113;28;20109;-60
2021/05/16 12:56:18;;;;;;;1.25;1.15;;;24.00;45.30;;;;;;5088800;28;20035;-60
2021/05/16 12:59:02;;;;;;;1.33;1.23;;;24.00;45.50;;;;;;5090368;28;20128;-60
2021/05/16 13:01:39;;;;;;;2.47;1.80;;;24.00;45.50;;;;;;5091610;28;20036;-60
2021/05/16 13:04:07;;;;;;;2.00;1.42;;;24.00;45.40;;;;;;5090716;28;20050;-60
2021/05/16 13:06:41;;;;;;;1.35;1.20;;;24.10;45.20;;;;;;5088767;28;20024;-60
2021/05/16 13:09:11;;;;;;;1.98;1.10;;;24.20;44.90;;;;;;5088490;28;20149;-62
2021/05/16 13:11:51;;;;;;;1.10;1.10;;;24.20;44.70;;;;;;5087461;28;20481;-60
2021/05/16 13:14:27;;;;;;;2.10;1.60;;;24.20;44.90;;;;;;5090247;28;20020;-60
2021/05/16 13:17:06;;;;;;;1.70;1.60;;;24.20;44.80;;;;;;5068856;28;20028;-60
2021/05/16 13:19:34;;;;;;;1.48;1.10;;;24.30;44.70;;;;;;5086981;28;20032;-60
2021/05/16 13:22:00;;;;;;;1.40;1.15;;;24.30;44.40;;;;;;5088582;28;20039;-61
2021/05/16 13:24:25;;;;;;;1.35;1.23;;;24.30;44.50;;;;;;5090399;28;20036;-61
2021/05/16 13:26:54;;;;;;;0.90;0.90;;;24.30;45.20;;;;;;5089479;28;20035;-61
2021/05/16 13:29:23;;;;;;;1.35;1.23;;;24.40;48.50;;;;;;5086853;28;20372;-61
2021/05/16 13:31:49;;;;;;;2.15;1.27;;;24.30;48.40;;;;;;5071310;28;20466;-61
2021/05/16 13:34:23;;;;;;;2.85;1.95;;;24.20;49.30;;;;;;5091337;28;20383;-61
2021/05/16 13:36:55;;;;;;;1.77;1.67;;;24.20;49.90;;;;;;5089344;28;20028;-61
2021/05/16 13:39:21;;;;;;;1.50;1.40;;;24.20;50.60;;;;;;5089014;28;20067;-61
2021/05/16 13:41:47;;;;;;;2.10;1.52;;;24.10;51.00;;;;;;5088371;28;20480;-61
2021/05/16 13:44:14;;;;;;;5.72;3.05;;;24.10;51.20;;;;;;5070446;28;20056;-61
2021/05/16 13:46:40;;;;;;;4.38;2.83;;;24.10;51.40;;;;;;5089082;28;20032;-61
2021/05/16 13:49:08;;;;;;;2.97;2.13;;;24.10;51.70;;;;;;5091123;28;20035;-61
2021/05/16 13:51:34;;;;;;;2.00;1.60;;;24.10;51.80;;;;;;5088410;28;20048;-61
2021/05/16 13:54:00;;;;;;;3.67;2.40;;;24.10;50.90;;;;;;5094593;28;20173;-61
2021/05/16 13:56:26;;;;;;;4.63;2.80;;;24.00;50.90;;;;;;5094858;28;20052;-61
2021/05/16 13:58:51;;;;;;;3.70;2.63;;;24.00;51.40;;;;;;5095039;28;20055;-61
2021/05/16 14:01:17;;;;;;;3.10;2.20;;;24.00;51.40;;;;;;5094671;28;20383;-61
2021/05/16 14:03:43;;;;;;;1.17;1.08;;;23.90;51.40;;;;;;5093606;28;20514;-61
2021/05/16 14:06:09;;;;;;;1.40;1.33;;;23.90;51.30;;;;;;5094169;28;20846;-61
2021/05/16 14:08:36;;;;;;;2.05;1.30;;;23.80;51.30;;;;;;5093799;28;20477;-61
2021/05/16 14:11:02;;;;;;;1.60;1.50;;;23.80;51.00;;;;;;5094771;28;20024;-61
2021/05/16 14:13:27;;;;;;;1.60;1.45;;;23.70;50.90;;;;;;5094955;28;20024;-61
2021/05/16 14:15:53;;;;;;;1.42;1.33;;;23.70;50.60;;;;;;5092241;28;20038;-61
2021/05/16 14:18:18;;;;;;;1.63;1.40;;;23.70;50.20;;;;;;5093409;28;20016;-68
2021/05/16 14:20:44;;;;;;;1.08;0.98;;;23.70;50.00;;;;;;5094755;28;20027;-68
2021/05/16 14:23:10;;;;;;;1.02;1.02;;;23.60;49.70;;;;;;5097219;28;20549;-68
2021/05/16 14:25:35;;;;;;;1.95;1.80;;;23.60;49.30;;;;;;5098830;28;20020;-68
2021/05/16 14:28:01;;;;;;;3.00;1.40;;;23.60;49.10;;;;;;5079097;28;20060;-68
2021/05/16 14:30:27;;;;;;;2.42;1.45;;;23.60;49.10;;;;;;5100510;28;20035;-68
2021/05/16 14:32:53;;;;;;;3.28;2.00;;;23.60;48.40;;;;;;5099212;28;20070;-68
2021/05/16 14:35:19;;;;;;;2.85;2.13;;;23.60;48.10;;;;;;5102021;28;20467;-69
2021/05/16 14:37:46;;;;;;;2.53;1.73;;;23.60;47.90;;;;;;5084414;28;20031;-68
2021/05/16 14:40:15;;;;;;;2.42;1.48;;;23.60;48.30;;;;;;5080534;28;20433;-69
2021/05/16 14:42:40;;;;;;;2.63;1.98;;;23.60;48.40;;;;;;5094408;28;20032;-69
2021/05/16 14:45:06;;;;;;;8.27;1.77;;;23.60;48.10;;;;;;5094035;28;20107;-69
2021/05/16 14:47:32;;;;;;;5.13;1.75;;;23.60;47.50;;;;;;5093840;28;20107;-69
2021/05/16 14:49:58;;;;;;;2.65;1.90;;;23.60;47.50;;;;;;5072786;28;20107;-68
2021/05/16 14:52:25;;;;;;;4.00;2.10;;;23.60;47.90;;;;;;5075065;28;20023;-68
2021/05/16 14:54:51;;;;;;;6.95;2.05;;;23.60;48.20;;;;;;5095020;28;20417;-68
2021/05/16 14:57:16;;;;;;;3.35;2.00;;;23.60;48.50;;;;;;5095490;28;20020;-70
2021/05/16 14:59:42;;;;;;;5.40;2.88;;;23.60;49.00;;;;;;5095421;28;20020;-68
2021/05/16 15:02:07;;;;;;;3.72;2.28;;;23.60;49.20;;;;;;5095016;28;20026;-68
2021/05/16 15:04:33;;;;;;;4.72;2.28;;;23.60;49.50;;;;;;5094546;28;20122;-66
2021/05/16 15:06:59;;;;;;;3.75;2.20;;;23.60;49.80;;;;;;5093889;28;20025;-65
2021/05/16 15:09:25;;;;;;;5.22;3.33;;;23.50;48.90;;;;;;5093814;28;20086;-65
2021/05/16 15:11:50;;;;;;;2.60;2.40;;;23.50;48.50;;;;;;5093774;28;20108;-65
2021/05/16 15:14:16;;;;;;;4.15;2.60;;;23.40;48.20;;;;;;5093074;28;20031;-65
2021/05/16 15:16:42;;;;;;;2.72;2.40;;;23.40;48.60;;;;;;5093634;28;20087;-65
2021/05/16 15:19:07;;;;;;;3.83;2.38;;;23.40;48.70;;;;;;5092589;28;20475;-65
2021/05/16 15:21:33;;;;;;;2.90;2.15;;;23.30;48.80;;;;;;5076099;28;20032;-65
2021/05/16 15:23:59;;;;;;;3.72;2.17;;;23.20;48.60;;;;;;5076339;28;20036;-65
2021/05/16 15:26:25;;;;;;;2.10;1.85;;;23.20;48.40;;;;;;5093450;28;20028;-66
2021/05/16 15:28:51;;;;;;;3.22;2.28;;;23.20;48.80;;;;;;5093776;28;20025;-66
2021/05/16 15:31:16;;;;;;;2.20;1.90;;;23.10;49.30;;;;;;5091615;28;20016;-66
2021/05/16 15:33:42;;;;;;;3.38;2.58;;;23.10;49.70;;;;;;5093242;28;20032;-66
2021/05/16 15:36:08;;;;;;;4.90;3.15;;;23.10;50.50;;;;;;5094675;28;20494;-66
2021/05/16 15:38:34;;;;;;;6.03;3.35;;;23.00;51.10;;;;;;5094255;28;20437;-66
2021/05/16 15:41:02;;;;;;;6.05;4.22;;;23.00;51.80;;;;;;5093361;28;20028;-66
2021/05/16 15:43:28;;;;;;;4.90;3.80;;;22.90;52.10;;;;;;5092481;28;20054;-65
2021/05/16 15:45:54;;;;;;;3.15;2.80;;;22.90;51.60;;;;;;5088679;28;20032;-66
2021/05/16 15:48:21;;;;;;;4.68;3.00;;;22.90;51.00;;;;;;5092138;28;20471;-66
2021/05/16 15:50:47;;;;;;;8.88;5.88;;;22.80;51.20;;;;;;5092459;28;20036;-66
2021/05/16 15:53:13;;;;;;;9.35;6.82;;;22.80;50.80;;;;;;5091113;28;20078;-66
2021/05/16 15:55:40;;;;;;;8.68;5.43;;;22.70;51.30;;;;;;5092053;28;20016;-65
2021/05/16 15:58:07;;;;;;;10.13;6.80;;;22.80;50.90;;;;;;5094051;28;20124;-65
2021/05/16 16:00:34;;;;;;;10.20;6.60;;;22.80;51.40;;;;;;5073628;28;20403;-65
2021/05/16 16:03:00;;;;;;;11.43;6.88;;;22.70;51.70;;;;;;5091917;28;20110;-65
2021/05/16 16:05:27;;;;;;;9.57;6.50;;;22.70;52.30;;;;;;5092974;28;20028;-65
2021/05/16 16:07:52;;;;;;;12.27;6.60;;;22.70;53.00;;;;;;5093478;28;20020;-65
2021/05/16 16:10:19;;;;;;;7.93;5.18;;;22.70;53.30;;;;;;5100043;28;20433;-65
2021/05/16 16:12:44;;;;;;;7.05;4.90;;;22.70;53.60;;;;;;5077725;28;20032;-65
2021/05/16 16:15:11;;;;;;;6.43;3.95;;;22.70;53.80;;;;;;5101207;28;20487;-65
2021/05/16 16:17:37;;;;;;;5.20;3.65;;;22.70;54.40;;;;;;5098088;28;20023;-65
2021/05/16 16:20:08;;;;;;;7.78;4.10;;;22.60;54.90;;;;;;5078539;28;20421;-65
2021/05/16 16:22:34;;;;;;;5.88;3.53;;;22.60;54.10;;;;;;5089875;28;20032;-65
2021/05/16 16:25:01;;;;;;;9.32;3.63;;;22.60;54.80;;;;;;5088474;28;20038;-65
2021/05/16 16:27:28;;;;;;;4.18;3.33;;;22.50;55.00;;;;;;5091130;28;20063;-65
2021/05/16 16:29:53;;;;;;;4.93;3.38;;;22.50;55.00;;;;;;5071785;28;20020;-65
2021/05/16 16:32:19;;;;;;;5.75;3.42;;;22.50;55.20;;;;;;5090113;28;20032;-65
2021/05/16 16:34:46;;;;;;;5.20;3.42;;;22.50;55.60;;;;;;5091416;28;20028;-65
2021/05/16 16:37:13;;;;;;;4.00;3.15;;;22.50;55.60;;;;;;5093307;28;20431;-65
2021/05/16 16:39:38;;;;;;;6.35;3.47;;;22.40;55.90;;;;;;5089924;28;20498;-65
2021/05/16 16:42:06;;;;;;;9.48;3.97;;;22.40;55.80;;;;;;5092180;28;20024;-65
2021/05/16 16:44:31;;;;;;;7.00;4.05;;;22.40;55.90;;;;;;5092308;28;20364;-65
2021/05/16 16:46:57;;;;;;;6.75;4.32;;;22.40;56.10;;;;;;5092632;28;20027;-65
2021/05/16 16:49:23;;;;;;;6.05;3.92;;;22.30;56.30;;;;;;5091084;28;20024;-65
2021/05/16 16:51:48;;;;;;;8.32;4.65;;;22.30;56.10;;;;;;5087844;28;20507;-65
2021/05/16 16:54:14;;;;;;;8.27;4.28;;;22.30;56.10;;;;;;5093650;28;20028;-65
2021/05/16 16:56:40;;;;;;;4.60;3.63;;;22.20;56.10;;;;;;5093509;28;20024;-65
2021/05/16 16:59:05;;;;;;;5.45;4.00;;;22.20;56.10;;;;;;5093629;28;20020;-65
2021/05/16 17:01:32;;;;;;;4.43;3.00;;;22.10;56.40;;;;;;5093658;28;20032;-65
2021/05/16 17:03:58;;;;;;;6.38;3.03;;;22.10;56.00;;;;;;5094116;28;20036;-67
2021/05/16 17:06:25;;;;;;;2.65;2.30;;;22.00;55.60;;;;;;5093378;28;20067;-65
2021/05/16 17:08:50;;;;;;;3.85;2.65;;;22.00;55.20;;;;;;5093507;28;20432;-65
2021/05/16 17:11:16;;;;;;;4.75;3.55;;;21.90;54.90;;;;;;5073859;28;20020;-66
2021/05/16 17:13:42;;;;;;;4.90;2.97;;;21.90;55.30;;;;;;5074365;28;20059;-66
2021/05/16 17:16:08;;;;;;;5.13;2.78;;;21.80;54.80;;;;;;5093175;28;20479;-66
2021/05/16 17:18:33;;;;;;;4.70;2.92;;;21.80;54.20;;;;;;5092748;28;20047;-66
2021/05/16 17:20:59;;;;;;;10.55;3.90;;;21.80;54.20;;;;;;5093197;28;20035;-66
2021/05/16 17:23:27;;;;;;;5.00;3.17;;;21.80;54.60;;;;;;5093144;28;20103;-66
2021/05/16 17:25:53;;;;;;;5.15;3.10;;;21.70;54.30;;;;;;5093141;28;20032;-66
2021/05/16 17:28:19;;;;;;;5.25;3.78;;;21.70;53.80;;;;;;5067792;28;20062;-66
2021/05/16 17:30:45;;;;;;;5.25;4.03;;;21.70;54.30;;;;;;5097107;28;20047;-66
2021/05/16 17:33:10;;;;;;;5.13;4.15;;;21.70;55.00;;;;;;5097085;28;20028;-66
2021/05/16 17:35:36;;;;;;;5.80;3.70;;;21.60;55.80;;;;;;5096957;28;20149;-66
2021/05/16 17:38:02;;;;;;;6.18;3.38;;;21.60;56.40;;;;;;5096946;28;20502;-66
2021/05/16 17:40:28;;;;;;;5.57;3.25;;;21.60;57.20;;;;;;5096356;28;20507;-66
2021/05/16 17:42:53;;;;;;;6.30;4.32;;;21.50;58.00;;;;;;5096954;28;20043;-66
2021/05/16 17:45:19;;;;;;;5.30;3.58;;;21.50;58.20;;;;;;5096746;28;20149;-66
2021/05/16 17:47:45;;;;;;;4.68;3.42;;;21.50;58.30;;;;;;5096426;28;20016;-66
2021/05/16 17:50:11;;;;;;;6.03;3.85;;;21.40;58.70;;;;;;5095809;28;20020;-66
2021/05/16 17:52:38;;;;;;;5.47;3.47;;;21.40;58.50;;;;;;5095497;28;20035;-66
2021/05/16 17:55:08;;;;;;;5.32;3.35;;;21.40;58.50;;;;;;5096820;28;20020;-66
2021/05/16 17:57:34;;;;;;;3.83;3.47;;;21.30;58.80;;;;;;5096233;28;20063;-66
2021/05/16 18:00:00;;;;;;;5.93;3.75;;;21.30;58.90;;;;;;5096458;28;20101;-66
2021/05/16 18:02:37;;;;;;;5.72;3.55;;;21.30;59.00;;;;;;5096030;28;20032;-66
2021/05/16 18:05:03;;;;;;;2.95;2.65;;;21.30;59.00;;;;;;5096184;28;20032;-66
2021/05/16 18:07:29;;;;;;;3.63;3.00;;;21.20;59.00;;;;;;5096148;28;20368;-66
2021/05/16 18:09:55;;;;;;;5.28;3.60;;;21.20;59.10;;;;;;5096278;28;20019;-66
2021/05/16 18:12:21;;;;;;;5.80;4.10;;;21.20;59.00;;;;;;5096219;28;20524;-66
2021/05/16 18:14:48;;;;;;;5.50;3.70;;;21.10;59.20;;;;;;5096282;28;20016;-66
2021/05/16 18:17:14;;;;;;;6.53;4.10;;;21.10;59.20;;;;;;5095765;28;20036;-66
2021/05/16 18:19:41;;;;;;;7.35;4.35;;;21.10;59.10;;;;;;5096091;28;20156;-66
2021/05/16 18:22:07;;;;;;;5.72;3.75;;;21.10;59.40;;;;;;5096231;28;20085;-66
2021/05/16 18:24:33;;;;;;;7.05;3.80;;;21.10;59.70;;;;;;5095943;28;20077;-66
2021/05/16 18:26:59;;;;;;;6.05;3.40;;;21.00;59.80;;;;;;5095796;28;20031;-66
2021/05/16 18:29:25;;;;;;;3.45;2.90;;;21.00;60.10;;;;;;5077478;28;20013;-66
2021/05/16 18:31:50;;;;;;;3.00;2.70;;;21.00;60.40;;;;;;5075914;28;20025;-66
2021/05/16 18:34:16;;;;;;;5.85;2.90;;;21.00;60.40;;;;;;5075660;28;20376;-66
2021/05/16 18:36:42;;;;;;;4.93;3.45;;;21.00;60.20;;;;;;5087835;28;20360;-66